Date,TemperatureHighF,TemperatureAvgF,TemperatureLowF,DewpointHighF,DewpointAvgF,DewpointLowF,HumidityHigh,HumidityAvg,HumidityLow,PressureMaxIn,PressureMinIn,WindSpeedMaxMPH,WindSpeedAvgMPH,GustSpeedMaxMPH,PrecipitationSumIn
2012-1-1,36,27,20,-100,-100,-100,0,0,100,0.00,40.00,0,-999,0,0.01
2012-1-2,40,37,34,-100,-100,-100,0,0,100,0.00,40.00,0,-999,0,0.01
2012-1-3,38,34,31,-100,-100,-100,0,0,100,0.00,40.00,0,-999,0,0.00
2012-1-4,45,39,35,-100,-100,-100,0,0,100,0.00,40.00,0,-999,0,0.00
2012-1-5,38,30,24,-100,-100,-100,0,0,100,0.00,40.00,0,-999,0,0.00
2012-1-6,25,23,22,-100,-100,-100,0,0,100,0.00,40.00,0,-999,0,0.00
2012-1-7,22,21,20,-100,-100,-100,0,0,100,0.00,40.00,0,-999,0,0.00
2012-1-8,31,27,22,-100,-100,-100,0,0,100,0.00,40.00,0,-999,0,0.00
2012-1-9,38,33,30,-100,-100,-100,0,0,100,0.00,40.00,0,-999,0,0.00
2012-1-10,32,24,14,-100,-100,-100,0,0,100,0.00,40.00,0,-999,0,0.02
2012-1-11,21,18,15,-100,-100,-100,0,0,100,0.00,40.00,0,-999,0,0.01
2012-1-12,29,22,18,-100,-100,-100,0,0,100,0.00,40.00,0,-999,0,0.00
2012-1-13,33,28,22,-100,-100,-100,0,0,100,0.00,40.00,0,-999,0,0.00
2012-1-14,30,28,19,-100,-100,-100,0,0,100,0.00,40.00,0,-999,0,0.00
2012-1-15,18,15,12,-100,-100,-100,0,0,100,0.00,40.00,0,-999,0,0.01
2012-1-16,14,13,13,-100,-100,-100,0,0,100,0.00,40.00,0,-999,0,0.02
2012-1-17,20,16,13,-100,-100,-100,0,0,100,0.00,40.00,0,-999,0,0.06
2012-1-18,27,21,14,-100,-100,-100,0,0,100,0.00,40.00,0,-999,0,0.05
2012-1-19,30,28,22,-100,-100,-100,0,0,100,0.00,40.00,0,-999,0,0.08
2012-1-20,33,29,22,-100,-100,-100,0,0,100,0.00,40.00,0,-999,0,0.03
2012-1-21,33,29,22,-100,-100,-100,0,0,100,0.00,40.00,0,-999,0,0.02
2012-1-22,26,23,20,-100,-100,-100,0,0,100,0.00,40.00,0,-999,0,0.01
2012-1-23,30,24,19,-100,-100,-100,0,0,100,0.00,40.00,0,-999,0,0.01
2012-1-24,29,23,20,-100,-100,-100,0,0,100,0.00,40.00,0,-999,0,0.02
2012-1-25,34,30,27,-100,-100,-100,0,0,100,0.00,40.00,0,-999,0,0.02
2012-1-26,31,26,18,-100,-100,-100,0,0,100,0.00,40.00,0,-999,0,0.04
2012-1-27,26,18,13,-100,-100,-100,0,0,100,0.00,40.00,0,-999,0,0.01
2012-1-28,27,21,16,-100,-100,-100,0,0,100,0.00,40.00,0,-999,0,0.00
2012-1-29,31,29,27,-100,-100,-100,0,0,100,0.00,40.00,0,-999,0,0.02
2012-1-30,30,28,26,-100,-100,-100,0,0,100,0.00,40.00,0,-999,0,0.05
2012-1-31,31,27,26,-100,-100,-100,0,0,100,0.00,40.00,0,-999,0,0.01
2012-2-1,30,28,26,-100,-100,-100,0,0,100,0.00,40.00,0,-999,0,0.03
2012-2-2,31,26,23,-100,-100,-100,0,0,100,0.00,40.00,0,-999,0,0.01
2012-2-3,33,27,23,-100,-100,-100,0,0,100,0.00,40.00,0,-999,0,0.00
2012-2-4,41,30,26,-100,-100,-100,0,0,100,0.00,40.00,0,-999,0,0.00
2012-2-5,40,31,27,-100,-100,-100,0,0,100,0.00,40.00,0,-999,0,0.00
2012-2-6,37,30,27,-100,-100,-100,0,0,100,0.00,40.00,0,-999,0,0.00
2012-2-7,38,30,25,-100,-100,-100,0,0,100,0.00,40.00,0,-999,0,0.00
2012-2-8,35,30,26,-100,-100,-100,0,0,100,0.00,40.00,0,-999,0,0.00
2012-2-9,34,32,30,-100,-100,-100,0,0,100,0.00,40.00,0,-999,0,0.01
2012-2-10,37,34,33,-100,-100,-100,0,0,100,0.00,40.00,0,-999,0,0.01
2012-2-11,36,34,28,-100,-100,-100,0,0,100,0.00,40.00,0,-999,0,0.01
2012-2-12,31,27,24,-100,-100,-100,0,0,100,0.00,40.00,0,-999,0,0.01
2012-2-13,29,26,23,-100,-100,-100,0,0,100,0.00,40.00,0,-999,0,0.01
2012-2-14,27,24,22,-100,-100,-100,0,0,100,0.00,40.00,0,-999,0,0.00
2012-2-15,24,22,18,-100,-100,-100,0,0,100,0.00,40.00,0,-999,0,0.00
2012-2-16,25,22,19,-100,-100,-100,0,0,100,0.00,40.00,0,-999,0,0.01
2012-2-17,32,29,26,-100,-100,-100,0,0,100,0.00,40.00,0,-999,0,0.01
2012-2-18,30,25,23,-100,-100,-100,0,0,100,0.00,40.00,0,-999,0,0.02
2012-2-19,23,22,21,-100,-100,-100,0,0,100,0.00,40.00,0,-999,0,0.04
2012-2-20,26,23,20,-100,-100,-100,0,0,100,0.00,40.00,0,-999,0,0.01
2012-2-21,36,30,26,-100,-100,-100,0,0,100,0.00,40.00,0,-999,0,0.05
2012-2-22,36,30,23,-100,-100,-100,0,0,100,0.00,40.00,0,-999,0,0.02
2012-2-23,25,23,21,-100,-100,-100,0,0,100,0.00,40.00,0,-999,0,0.00
2012-2-24,32,26,21,-100,-100,-100,0,0,100,0.00,40.00,0,-999,0,0.00
2012-2-25,29,24,20,-100,-100,-100,0,0,100,0.00,40.00,0,-999,0,0.04
2012-2-26,22,20,18,-100,-100,-100,0,0,100,0.00,40.00,0,-999,0,0.01
2012-2-27,27,20,16,-100,-100,-100,0,0,100,0.00,40.00,0,-999,0,0.00
2012-2-28,24,19,15,-100,-100,-100,0,0,100,0.00,40.00,0,-999,0,0.00
2012-2-29,29,23,21,-100,-100,-100,0,0,100,0.00,40.00,0,-999,0,0.01
2012-3-1,22,20,19,-100,-100,-100,0,0,100,0.00,40.00,0,-999,0,0.01
2012-3-2,24,21,18,-100,-100,-100,0,0,100,0.00,40.00,0,-999,0,0.00
2012-3-3,33,30,24,-100,-100,-100,0,0,100,0.00,40.00,0,-999,0,0.00
2012-3-4,43,35,31,-100,-100,-100,0,0,100,0.00,40.00,0,-999,0,0.00
2012-3-5,36,32,23,-100,-100,-100,0,0,100,0.00,40.00,0,-999,0,0.00
2012-3-6,23,18,16,-100,-100,-100,0,0,100,0.00,40.00,0,-999,0,0.00
2012-3-7,30,21,14,-100,-100,-100,0,0,100,0.00,40.00,0,-999,0,0.00
2012-3-8,45,34,23,-100,-100,-100,0,0,100,0.00,40.00,0,-999,0,0.00
2012-3-9,53,41,35,-100,-100,-100,0,0,100,0.00,40.00,0,-999,0,0.01
2012-3-10,48,38,35,-100,-100,-100,0,0,100,0.00,40.00,0,-999,0,0.09
2012-3-11,37,30,22,-100,-100,-100,0,0,100,0.00,40.00,0,-999,0,0.02
2012-3-12,33,26,19,-100,-100,-100,0,0,100,0.00,40.00,0,-999,0,0.01
2012-3-13,33,27,21,-100,-100,-100,0,0,100,0.00,40.00,0,-999,0,0.02
2012-3-14,33,27,21,-100,-100,-100,0,0,100,0.00,40.00,0,-999,0,0.01
2012-3-15,37,34,32,-100,-100,-100,0,0,100,0.00,40.00,0,-999,0,0.03
2012-3-16,33,30,28,-100,-100,-100,0,0,100,0.00,40.00,0,-999,0,0.04
2012-3-17,33,30,24,-100,-100,-100,0,0,100,0.00,40.00,0,-999,0,0.02
2012-3-18,32,26,24,-100,-100,-100,0,0,100,0.00,40.00,0,-999,0,0.01
2012-3-19,27,21,18,-100,-100,-100,0,0,100,0.00,40.00,0,-999,0,0.00
2012-3-20,27,25,20,-100,-100,-100,0,0,100,0.00,40.00,0,-999,0,0.06
2012-3-21,34,28,25,-100,-100,-100,0,0,100,0.00,40.00,0,-999,0,0.04
2012-3-22,34,31,26,-100,-100,-100,0,0,100,0.00,40.00,0,-999,0,0.01
2012-3-23,34,30,27,-100,-100,-100,0,0,100,0.00,40.00,0,-999,0,0.01
2012-3-24,45,36,27,-100,-100,-100,0,0,100,0.00,40.00,0,-999,0,0.00
2012-3-25,59,45,37,-100,-100,-100,0,0,100,0.00,40.00,0,-999,0,0.02
2012-3-26,38,32,29,-100,-100,-100,0,0,100,0.00,40.00,0,-999,0,0.03
2012-3-27,41,34,28,-100,-100,-100,0,0,100,0.00,40.00,0,-999,0,0.01
2012-3-28,40,33,29,-100,-100,-100,0,0,100,0.00,40.00,0,-999,0,0.02
2012-3-29,35,32,30,-100,-100,-100,0,0,100,0.00,40.00,0,-999,0,0.01
2012-3-30,36,34,30,-100,-100,-100,0,0,100,0.00,40.00,0,-999,0,0.03
2012-3-31,51,36,29,-100,-100,-100,0,0,100,0.00,40.00,0,-999,0,0.01
2012-4-1,30,27,24,-100,-100,-100,0,0,100,0.00,40.00,0,-999,0,0.02
2012-4-2,40,30,25,-100,-100,-100,0,0,100,0.00,40.00,0,-999,0,0.01
2012-4-3,47,38,31,-100,-100,-100,0,0,100,0.00,40.00,0,-999,0,0.00
2012-4-4,34,28,25,-100,-100,-100,0,0,100,0.00,40.00,0,-999,0,0.02
2012-4-5,35,26,22,-100,-100,-100,0,0,100,0.00,40.00,0,-999,0,0.01
2012-4-6,29,25,23,-100,-100,-100,0,0,100,0.00,40.00,0,-999,0,0.00
2012-4-7,41,30,23,-100,-100,-100,0,0,100,0.00,40.00,0,-999,0,0.01
2012-4-8,50,40,30,-100,-100,-100,0,0,100,0.00,40.00,0,-999,0,0.00
2012-4-9,59,49,45,-100,-100,-100,0,0,100,0.00,40.00,0,-999,0,0.00
2012-4-10,60,52,48,-100,-100,-100,0,0,100,0.00,40.00,0,-999,0,0.00
2012-4-11,61,49,38,-100,-100,-100,0,0,100,0.00,40.00,0,-999,0,0.00
2012-4-12,44,36,31,-100,-100,-100,0,0,100,0.00,40.00,0,-999,0,0.01
2012-4-13,47,37,31,-100,-100,-100,0,0,100,0.00,40.00,0,-999,0,0.01
2012-4-14,47,38,34,-100,-100,-100,0,0,100,0.00,40.00,0,-999,0,0.00
2012-4-15,36,33,29,-100,-100,-100,0,0,100,0.00,40.00,0,-999,0,0.00
2012-4-16,37,34,32,-100,-100,-100,0,0,100,0.00,40.00,0,-999,0,0.03
2012-4-17,40,34,27,-100,-100,-100,0,0,100,0.00,40.00,0,-999,0,0.01
2012-4-18,39,34,30,-100,-100,-100,0,0,100,0.00,40.00,0,-999,0,0.03
2012-4-19,44,36,29,-100,-100,-100,0,0,100,0.00,40.00,0,-999,0,0.02
2012-4-20,41,40,37,-100,-100,-100,0,0,100,0.00,40.00,0,-999,0,0.02
2012-4-21,56,46,39,-100,-100,-100,0,0,100,0.00,40.00,0,-999,0,0.01
2012-4-22,70,58,49,-100,-100,-100,0,0,100,0.00,40.00,0,-999,0,0.00
2012-4-23,70,61,57,-100,-100,-100,0,0,100,0.00,40.00,0,-999,0,0.00
2012-4-24,58,50,45,-100,-100,-100,0,0,100,0.00,40.00,0,-999,0,0.01
2012-4-25,57,48,42,-100,-100,-100,0,0,100,0.00,40.00,0,-999,0,0.00
2012-4-26,45,40,30,-100,-100,-100,0,0,100,0.00,40.00,0,-999,0,0.03
2012-4-27,33,30,27,-100,-100,-100,0,0,100,0.00,40.00,0,-999,0,0.02
2012-4-28,43,32,28,-100,-100,-100,0,0,100,0.00,40.00,0,-999,0,0.00
2012-4-29,45,39,33,-100,-100,-100,0,0,100,0.00,40.00,0,-999,0,0.00
2012-4-30,42,38,34,-100,-100,-100,0,0,100,0.00,40.00,0,-999,0,0.03
2012-5-1,35,30,27,-100,-100,-100,0,0,100,0.00,40.00,0,-999,0,0.01
2012-5-2,34,30,26,-100,-100,-100,0,0,100,0.00,40.00,0,-999,0,0.01
2012-5-3,39,34,31,-100,-100,-100,0,0,100,0.00,40.00,0,-999,0,0.02
2012-5-4,38,33,29,-100,-100,-100,0,0,100,0.00,40.00,0,-999,0,0.01
2012-5-5,31,28,27,-100,-100,-100,0,0,100,0.00,40.00,0,-999,0,0.01
2012-5-6,44,35,28,-100,-100,-100,0,0,100,0.00,40.00,0,-999,0,0.00
2012-5-7,58,45,36,-100,-100,-100,0,0,100,0.00,40.00,0,-999,0,0.00
2012-5-8,61,51,45,-100,-100,-100,0,0,100,0.00,40.00,0,-999,0,0.00
2012-5-9,50,44,33,-100,-100,-100,0,0,100,0.00,40.00,0,-999,0,0.00
2012-5-10,40,32,24,-100,-100,-100,0,0,100,0.00,40.00,0,-999,0,0.00
2012-5-11,51,39,29,-100,-100,-100,0,0,100,0.00,40.00,0,-999,0,0.00
2012-5-12,58,44,36,-100,-100,-100,0,0,100,0.00,40.00,0,-999,0,0.00
2012-5-13,65,57,47,-100,-100,-100,0,0,100,0.00,40.00,0,-999,0,0.00
2012-5-14,70,64,54,-100,-100,-100,0,0,100,0.00,40.00,0,-999,0,0.00
2012-5-15,72,64,58,-100,-100,-100,0,0,100,0.00,40.00,0,-999,0,0.00
2012-5-16,62,54,48,-100,-100,-100,0,0,100,0.00,40.00,0,-999,0,0.00
2012-5-17,48,45,41,-100,-100,-100,0,0,100,0.00,40.00,0,-999,0,0.00
2012-5-18,48,40,31,-100,-100,-100,0,0,100,0.00,40.00,0,-999,0,0.00
2012-5-19,54,45,39,-100,-100,-100,0,0,100,0.00,40.00,0,-999,0,0.00
2012-5-20,55,49,43,-100,-100,-100,0,0,100,0.00,40.00,0,-999,0,0.00
2012-5-21,54,48,42,-100,-100,-100,0,0,100,0.00,40.00,0,-999,0,0.02
2012-5-22,41,37,35,-100,-100,-100,0,0,100,0.00,40.00,0,-999,0,0.02
2012-5-23,36,33,31,-100,-100,-100,0,0,100,0.00,40.00,0,-999,0,0.03
2012-5-24,45,36,33,-100,-100,-100,0,0,100,0.00,40.00,0,-999,0,0.01
2012-5-25,47,39,34,-100,-100,-100,0,0,100,0.00,40.00,0,-999,0,0.00
2012-5-26,45,39,35,-100,-100,-100,0,0,100,0.00,40.00,0,-999,0,0.00
2012-5-27,43,38,34,-100,-100,-100,0,0,100,0.00,40.00,0,-999,0,0.01
2012-5-28,50,43,36,-100,-100,-100,0,0,100,0.00,40.00,0,-999,0,0.01
2012-5-29,44,41,37,-100,-100,-100,0,0,100,0.00,40.00,0,-999,0,0.01
2012-5-30,51,44,40,-100,-100,-100,0,0,100,0.00,40.00,0,-999,0,0.01
2012-5-31,47,45,43,-100,-100,-100,0,0,100,0.00,40.00,0,-999,0,0.02
2012-6-1,58,50,47,-100,-100,-100,0,0,100,0.00,40.00,0,-999,0,0.01
2012-6-2,51,45,42,-100,-100,-100,0,0,100,0.00,40.00,0,-999,0,0.02
2012-6-3,49,45,41,-100,-100,-100,0,0,100,0.00,40.00,0,-999,0,0.01
2012-6-4,65,52,43,-100,-100,-100,0,0,100,0.00,40.00,0,-999,0,0.04
2012-6-5,42,37,34,-100,-100,-100,0,0,100,0.00,40.00,0,-999,0,0.07
2012-6-6,40,34,31,-100,-100,-100,0,0,100,0.00,40.00,0,-999,0,0.03
2012-6-7,53,42,35,-100,-100,-100,0,0,100,0.00,40.00,0,-999,0,0.01
2012-6-8,40,36,33,-100,-100,-100,0,0,100,0.00,40.00,0,-999,0,0.02
2012-6-9,35,33,32,-100,-100,-100,0,0,100,0.00,40.00,0,-999,0,0.02
2012-6-10,41,37,33,-100,-100,-100,0,0,100,0.00,40.00,0,-999,0,0.03
2012-6-11,60,49,40,-100,-100,-100,0,0,100,0.00,40.00,0,-999,0,0.01
2012-6-12,59,51,45,-100,-100,-100,0,0,100,0.00,40.00,0,-999,0,0.00
2012-6-13,50,45,42,-100,-100,-100,0,0,100,0.00,40.00,0,-999,0,0.01
2012-6-14,59,48,41,-100,-100,-100,0,0,100,0.00,40.00,0,-999,0,0.00
2012-6-15,57,49,42,-100,-100,-100,0,0,100,0.00,40.00,0,-999,0,0.00
2012-6-16,60,52,45,-100,-100,-100,0,0,100,0.00,40.00,0,-999,0,0.00
2012-6-17,53,49,47,-100,-100,-100,0,0,100,0.00,40.00,0,-999,0,0.01
2012-6-18,45,40,38,-100,-100,-100,0,0,100,0.00,40.00,0,-999,0,0.01
2012-6-19,47,40,35,-100,-100,-100,0,0,100,0.00,40.00,0,-999,0,0.01
2012-6-20,60,52,40,-100,-100,-100,0,0,100,0.00,40.00,0,-999,0,0.00
2012-6-21,73,62,54,-100,-100,-100,0,0,100,0.00,40.00,0,-999,0,0.00
2012-6-22,75,63,48,-100,-100,-100,0,0,100,0.00,40.00,0,-999,0,0.00
2012-6-23,65,54,46,-100,-100,-100,0,0,100,0.00,40.00,0,-999,0,0.01
2012-6-24,63,54,46,-100,-100,-100,0,0,100,0.00,40.00,0,-999,0,0.00
2012-6-25,64,56,51,-100,-100,-100,0,0,100,0.00,40.00,0,-999,0,0.00
2012-6-26,52,41,37,-100,-100,-100,0,0,100,0.00,40.00,0,-999,0,0.06
2012-6-27,56,47,37,-100,-100,-100,0,0,100,0.00,40.00,0,-999,0,0.01
2012-6-28,74,62,52,-100,-100,-100,0,0,100,0.00,40.00,0,-999,0,0.00
2012-6-29,63,55,49,-100,-100,-100,0,0,100,0.00,40.00,0,-999,0,0.01
2012-6-30,72,60,51,-100,-100,-100,0,0,100,0.00,40.00,0,-999,0,0.00
2012-7-1,56,52,49,-100,-100,-100,0,0,100,0.00,40.00,0,-999,0,0.02
2012-7-2,69,58,49,-100,-100,-100,0,0,100,0.00,40.00,0,-999,0,0.00
2012-7-3,54,48,43,-100,-100,-100,0,0,100,0.00,40.00,0,-999,0,0.01
2012-7-4,61,50,40,-100,-100,-100,0,0,100,0.00,40.00,0,-999,0,0.00
2012-7-5,67,59,52,-100,-100,-100,0,0,100,0.00,40.00,0,-999,0,0.00
2012-7-6,74,64,53,-100,-100,-100,0,0,100,0.00,40.00,0,-999,0,0.00
2012-7-7,81,71,58,-100,-100,-100,0,0,100,0.00,40.00,0,-999,0,0.00
2012-7-8,83,74,66,-100,-100,-100,0,0,100,0.00,40.00,0,-999,0,0.00
2012-7-9,78,69,66,-100,-100,-100,0,0,100,0.00,40.00,0,-999,0,0.01
2012-7-10,77,68,62,-100,-100,-100,0,0,100,0.00,40.00,0,-999,0,0.00
2012-7-11,79,68,62,-100,-100,-100,0,0,100,0.00,40.00,0,-999,0,0.01
2012-7-12,80,70,64,-100,-100,-100,0,0,100,0.00,40.00,0,-999,0,0.00
2012-7-13,74,67,62,-100,-100,-100,0,0,100,0.00,40.00,0,-999,0,0.00
2012-7-14,70,63,57,-100,-100,-100,0,0,100,0.00,40.00,0,-999,0,0.01
2012-7-15,64,57,52,-100,-100,-100,0,0,100,0.00,40.00,0,-999,0,0.02
2012-7-16,71,61,57,-100,-100,-100,0,0,100,0.00,40.00,0,-999,0,0.01
2012-7-17,72,65,58,-100,-100,-100,0,0,100,0.00,40.00,0,-999,0,0.02
2012-7-18,74,64,59,-100,-100,-100,0,0,100,0.00,40.00,0,-999,0,0.00
2012-7-19,80,69,61,-100,-100,-100,0,0,100,0.00,40.00,0,-999,0,0.00
2012-7-20,74,62,52,-100,-100,-100,0,0,100,0.00,40.00,0,-999,0,0.02
2012-7-21,67,59,50,-100,-100,-100,0,0,100,0.00,40.00,0,-999,0,0.02
2012-7-22,76,65,56,-100,-100,-100,0,0,100,0.00,40.00,0,-999,0,0.00
2012-7-23,58,49,40,-100,-100,-100,0,0,100,0.00,40.00,0,-999,0,0.01
2012-7-24,64,54,46,-100,-100,-100,0,0,100,0.00,40.00,0,-999,0,0.00
2012-7-25,72,59,51,-100,-100,-100,0,0,100,0.00,40.00,0,-999,0,0.00
2012-7-26,74,65,59,-100,-100,-100,0,0,100,0.00,40.00,0,-999,0,0.00
2012-7-27,70,66,61,-100,-100,-100,0,0,100,0.00,40.00,0,-999,0,0.00
2012-7-28,69,61,54,-100,-100,-100,0,0,100,0.00,40.00,0,-999,0,0.00
2012-7-29,73,63,54,-100,-100,-100,0,0,100,0.00,40.00,0,-999,0,0.00
2012-7-30,70,63,58,-100,-100,-100,0,0,100,0.00,40.00,0,-999,0,0.00
2012-7-31,71,61,53,-100,-100,-100,0,0,100,0.00,40.00,0,-999,0,0.00
2012-8-1,70,61,54,-100,-100,-100,0,0,100,0.00,40.00,0,-999,0,0.00
2012-8-2,64,56,51,-100,-100,-100,0,0,100,0.00,40.00,0,-999,0,0.01
2012-8-3,65,57,49,-100,-100,-100,0,0,100,0.00,40.00,0,-999,0,0.00
2012-8-4,72,63,55,-100,-100,-100,0,0,100,0.00,40.00,0,-999,0,0.00
2012-8-5,78,69,62,-100,-100,-100,0,0,100,0.00,40.00,0,-999,0,0.00
2012-8-6,74,66,62,-100,-100,-100,0,0,100,0.00,40.00,0,-999,0,0.01
2012-8-7,81,72,65,-100,-100,-100,0,0,100,0.00,40.00,0,-999,0,0.00
2012-8-8,73,66,60,-100,-100,-100,0,0,100,0.00,40.00,0,-999,0,0.01
2012-8-9,76,69,60,-100,-100,-100,0,0,100,0.00,40.00,0,-999,0,0.00
2012-8-10,71,66,60,-100,-100,-100,0,0,100,0.00,40.00,0,-999,0,0.00
2012-8-11,73,64,57,-100,-100,-100,0,0,100,0.00,40.00,0,-999,0,0.00
2012-8-12,78,67,61,-100,-100,-100,0,0,100,0.00,40.00,0,-999,0,0.00
2012-8-13,75,68,62,-100,-100,-100,0,0,100,0.00,40.00,0,-999,0,0.00
2012-8-14,74,66,58,-100,-100,-100,0,0,100,0.00,40.00,0,-999,0,0.00
2012-8-15,69,60,53,-100,-100,-100,0,0,100,0.00,40.00,0,-999,0,2.40
2012-8-16,70,62,54,-100,-100,-100,0,0,100,0.00,40.00,0,-999,0,2.40
2012-8-17,75,65,57,-100,-100,-100,0,0,100,0.00,40.00,0,-999,0,0.00
2012-8-18,80,70,64,-100,-100,-100,0,0,100,0.00,40.00,0,-999,0,0.00
2012-8-19,81,71,63,-100,-100,-100,0,0,100,0.00,40.00,0,-999,0,0.00
2012-8-20,76,67,60,-100,-100,-100,0,0,100,0.00,40.00,0,-999,0,0.00
2012-8-21,67,63,58,-100,-100,-100,0,0,100,0.00,40.00,0,-999,0,0.01
2012-8-22,63,56,48,-100,-100,-100,0,0,100,0.00,40.00,0,-999,0,0.00
2012-8-23,63,55,48,-100,-100,-100,0,0,100,0.00,40.00,0,-999,0,0.00
2012-8-24,54,46,37,-100,-100,-100,0,0,100,0.00,40.00,0,-999,0,0.01
2012-8-25,66,55,45,-100,-100,-100,0,0,100,0.00,40.00,0,-999,0,0.00
2012-8-26,74,66,61,-100,-100,-100,0,0,100,0.00,40.00,0,-999,0,0.00
2012-8-27,71,62,56,-100,-100,-100,0,0,100,0.00,40.00,0,-999,0,0.00
2012-8-28,70,61,54,-100,-100,-100,0,0,100,0.00,40.00,0,-999,0,0.00
2012-8-29,59,50,43,-100,-100,-100,0,0,100,0.00,40.00,0,-999,0,0.01
2012-8-30,65,55,46,-100,-100,-100,0,0,100,0.00,40.00,0,-999,0,0.00
2012-8-31,70,62,55,-100,-100,-100,0,0,100,0.00,40.00,0,-999,0,0.00
2012-9-1,59,52,44,-100,-100,-100,0,0,100,0.00,40.00,0,-999,0,0.00
2012-9-2,59,51,45,-100,-100,-100,0,0,100,0.00,40.00,0,-999,0,0.00
2012-9-3,63,54,48,-100,-100,-100,0,0,100,0.00,40.00,0,-999,0,0.00
2012-9-4,63,54,47,-100,-100,-100,0,0,100,0.00,40.00,0,-999,0,0.00
2012-9-5,64,56,50,-100,-100,-100,0,0,100,0.00,40.00,0,-999,0,0.00
2012-9-6,63,56,51,-100,-100,-100,0,0,100,0.00,40.00,0,-999,0,0.00
2012-9-7,69,57,50,-100,-100,-100,0,0,100,0.00,40.00,0,-999,0,0.00
2012-9-8,74,64,57,-100,-100,-100,0,0,100,0.00,40.00,0,-999,0,0.00
2012-9-9,69,62,50,-100,-100,-100,0,0,100,0.00,40.00,0,-999,0,0.01
2012-9-10,52,45,39,-100,-100,-100,0,0,100,0.00,40.00,0,-999,0,0.01
2012-9-11,50,41,33,-100,-100,-100,0,0,100,0.00,40.00,0,-999,0,0.00
2012-9-12,56,46,38,-100,-100,-100,0,0,100,0.00,40.00,0,-999,0,0.00
2012-9-13,69,59,49,-100,-100,-100,0,0,100,0.00,40.00,0,-999,0,0.00
2012-9-14,74,64,58,-100,-100,-100,0,0,100,0.00,40.00,0,-999,0,0.00
2012-9-15,69,61,57,-100,-100,-100,0,0,100,0.00,40.00,0,-999,0,0.00
2012-9-16,65,58,53,-100,-100,-100,0,0,100,0.00,40.00,0,-999,0,0.00
2012-9-17,65,57,52,-100,-100,-100,0,0,100,0.00,40.00,0,-999,0,0.00
2012-9-18,68,60,53,-100,-100,-100,0,0,100,0.00,40.00,0,-999,0,0.00
2012-9-19,67,60,55,-100,-100,-100,0,0,100,0.00,40.00,0,-999,0,0.00
2012-9-20,72,63,56,-100,-100,-100,0,0,100,0.00,40.00,0,-999,0,0.00
2012-9-21,76,65,59,-100,-100,-100,0,0,100,0.00,40.00,0,-999,0,0.00
2012-9-22,72,63,58,-100,-100,-100,0,0,100,0.00,40.00,0,-999,0,0.00
2012-9-23,62,54,48,-100,-100,-100,0,0,100,0.00,40.00,0,-999,0,0.00
2012-9-24,61,52,47,-100,-100,-100,0,0,100,0.00,40.00,0,-999,0,0.00
2012-9-25,60,53,49,-100,-100,-100,0,0,100,0.00,40.00,0,-999,0,0.00
2012-9-26,60,52,48,-100,-100,-100,0,0,100,0.00,40.00,0,-999,0,0.00
2012-9-27,66,56,50,-100,-100,-100,0,0,100,0.00,40.00,0,-999,0,0.00
2012-9-28,64,57,53,-100,-100,-100,0,0,100,0.00,40.00,0,-999,0,0.00
2012-9-29,63,55,51,-100,-100,-100,0,0,100,0.00,40.00,0,-999,0,0.00
2012-9-30,59,52,46,-100,-100,-100,0,0,100,0.00,40.00,0,-999,0,0.00
2012-10-1,62,54,48,-100,-100,-100,0,0,100,0.00,40.00,0,-999,0,0.00
2012-10-2,56,47,32,-100,-100,-100,0,0,100,0.00,40.00,0,-999,0,0.00
2012-10-3,45,35,28,-100,-100,-100,0,0,100,0.00,40.00,0,-999,0,0.00
2012-10-4,44,35,30,-100,-100,-100,0,0,100,0.00,40.00,0,-999,0,0.00
2012-10-5,46,35,29,-100,-100,-100,0,0,100,0.00,40.00,0,-999,0,0.00
2012-10-6,52,41,33,-100,-100,-100,0,0,100,0.00,40.00,0,-999,0,0.00
2012-10-7,54,46,41,-100,-100,-100,0,0,100,0.00,40.00,0,-999,0,0.00
2012-10-8,54,47,43,-100,-100,-100,0,0,100,0.00,40.00,0,-999,0,0.00
2012-10-9,53,46,42,-100,-100,-100,0,0,100,0.00,40.00,0,-999,0,0.00
2012-10-10,58,48,43,-100,-100,-100,0,0,100,0.00,40.00,0,-999,0,0.00
2012-10-11,60,51,46,-100,-100,-100,0,0,100,0.00,40.00,0,-999,0,0.00
2012-10-12,55,47,44,-100,-100,-100,0,0,100,0.00,40.00,0,-999,0,0.00
2012-10-13,43,42,41,-100,-100,-100,0,0,100,0.00,40.00,0,-999,0,0.02
2012-10-14,48,45,42,-100,-100,-100,0,0,100,0.00,40.00,0,-999,0,0.01
2012-10-15,47,45,43,-100,-100,-100,0,0,100,0.00,40.00,0,-999,0,0.09
2012-10-16,47,39,31,-100,-100,-100,0,0,100,0.00,40.00,0,-999,0,0.04
2012-10-17,38,32,29,-100,-100,-100,0,0,100,0.00,40.00,0,-999,0,0.01
2012-10-18,49,41,33,-100,-100,-100,0,0,100,0.00,40.00,0,-999,0,0.00
2012-10-19,45,41,38,-100,-100,-100,0,0,100,0.00,40.00,0,-999,0,0.02
2012-10-20,41,33,28,-100,-100,-100,0,0,100,0.00,40.00,0,-999,0,0.02
2012-10-21,38,31,27,-100,-100,-100,0,0,100,0.00,40.00,0,-999,0,0.01
2012-10-22,37,32,28,-100,-100,-100,0,0,100,0.00,40.00,0,-999,0,0.01
2012-10-23,30,28,27,-100,-100,-100,0,0,100,0.00,40.00,0,-999,0,0.01
2012-10-24,32,29,26,-100,-100,-100,0,0,100,0.00,40.00,0,-999,0,0.01
2012-10-25,29,28,26,-100,-100,-100,0,0,100,0.00,40.00,0,-999,0,0.01
2012-10-26,28,27,26,-100,-100,-100,0,0,100,0.00,40.00,0,-999,0,0.01
2012-10-27,33,31,28,-100,-100,-100,0,0,100,0.00,40.00,0,-999,0,0.02
2012-10-28,41,38,33,-100,-100,-100,0,0,100,0.00,40.00,0,-999,0,0.04
2012-10-29,44,42,40,-100,-100,-100,0,0,100,0.00,40.00,0,-999,0,0.09
2012-10-30,44,42,40,-100,-100,-100,0,0,100,0.00,40.00,0,-999,0,0.01
2012-10-31,55,49,43,-100,-100,-100,0,0,100,0.00,40.00,0,-999,0,0.00
2012-11-1,41,39,34,-100,-100,-100,0,0,100,0.00,40.00,0,-999,0,0.02
2012-11-2,42,38,36,-100,-100,-100,0,0,100,0.00,40.00,0,-999,0,0.01
2012-11-3,41,39,38,-100,-100,-100,0,0,100,0.00,40.00,0,-999,0,0.01
2012-11-4,43,42,40,-100,-100,-100,0,0,100,0.00,40.00,0,-999,0,0.00
2012-11-5,46,44,42,-100,-100,-100,0,0,100,0.00,40.00,0,-999,0,0.00
2012-11-6,53,47,43,-100,-100,-100,0,0,100,0.00,40.00,0,-999,0,0.00
2012-11-7,44,34,28,-100,-100,-100,0,0,100,0.00,40.00,0,-999,0,0.01
2012-11-8,30,28,26,-100,-100,-100,0,0,100,0.00,40.00,0,-999,0,0.01
2012-11-9,26,23,19,-100,-100,-100,0,0,100,0.00,40.00,0,-999,0,0.01
2012-11-10,21,18,13,-100,-100,-100,0,0,100,0.00,40.00,0,-999,0,0.01
2012-11-11,21,19,14,-100,-100,-100,0,0,100,0.00,40.00,0,-999,0,0.01
2012-11-12,28,24,21,-100,-100,-100,0,0,100,0.00,40.00,0,-999,0,0.03
2012-11-13,31,29,27,-100,-100,-100,0,0,100,0.00,40.00,0,-999,0,0.03
2012-11-14,32,31,30,-100,-100,-100,0,0,100,0.00,40.00,0,-999,0,0.02
2012-11-15,34,31,29,-100,-100,-100,0,0,100,0.00,40.00,0,-999,0,0.01
2012-11-16,40,34,31,-100,-100,-100,0,0,100,0.00,40.00,0,-999,0,0.00
2012-11-17,40,37,33,-100,-100,-100,0,0,100,0.00,40.00,0,-999,0,0.00
2012-11-18,31,29,28,-100,-100,-100,0,0,100,0.00,40.00,0,-999,0,0.01
2012-11-19,37,33,29,-100,-100,-100,0,0,100,0.00,40.00,0,-999,0,0.03
2012-11-20,39,38,36,-100,-100,-100,0,0,100,0.00,40.00,0,-999,0,0.02
2012-11-21,36,31,26,-100,-100,-100,0,0,100,0.00,40.00,0,-999,0,0.02
2012-11-22,29,26,24,-100,-100,-100,0,0,100,0.00,40.00,0,-999,0,0.01
2012-11-23,34,32,27,-100,-100,-100,0,0,100,0.00,40.00,0,-999,0,0.00
2012-11-24,33,31,27,-100,-100,-100,0,0,100,0.00,40.00,0,-999,0,0.04
2012-11-25,26,24,21,-100,-100,-100,0,0,100,0.00,40.00,0,-999,0,0.01
2012-11-26,26,23,21,-100,-100,-100,0,0,100,0.00,40.00,0,-999,0,0.00
2012-11-27,35,31,25,-100,-100,-100,0,0,100,0.00,40.00,0,-999,0,0.00
2012-11-28,40,36,33,-100,-100,-100,0,0,100,0.00,40.00,0,-999,0,0.00
2012-11-29,37,35,34,-100,-100,-100,0,0,100,0.00,40.00,0,-999,0,0.01
2012-11-30,37,36,35,-100,-100,-100,0,0,100,0.00,40.00,0,-999,0,0.02
2012-12-1,36,34,32,-100,-100,-100,0,0,100,0.00,40.00,0,-999,0,0.02
2012-12-2,36,32,29,-100,-100,-100,0,0,100,0.00,40.00,0,-999,0,0.03
2012-12-3,31,30,29,-100,-100,-100,0,0,100,0.00,40.00,0,-999,0,0.01
2012-12-4,36,33,29,-100,-100,-100,0,0,100,0.00,40.00,0,-999,0,0.03
2012-12-5,37,29,24,-100,-100,-100,0,0,100,0.00,40.00,0,-999,0,0.02
2012-12-6,26,24,24,-100,-100,-100,0,0,100,0.00,40.00,0,-999,0,0.04
2012-12-7,27,25,20,-100,-100,-100,0,0,100,0.00,40.00,0,-999,0,0.05
2012-12-8,20,17,14,-100,-100,-100,0,0,100,0.00,40.00,0,-999,0,0.03
2012-12-9,23,17,12,-100,-100,-100,0,0,100,0.00,40.00,0,-999,0,0.00
2012-12-10,29,27,24,-100,-100,-100,0,0,100,0.00,40.00,0,-999,0,0.00
2012-12-11,29,29,28,-100,-100,-100,0,0,100,0.00,40.00,0,-999,0,0.01
2012-12-12,28,27,24,-100,-100,-100,0,0,100,0.00,40.00,0,-999,0,0.02
2012-12-13,29,24,21,-100,-100,-100,0,0,100,0.00,40.00,0,-999,0,0.01
2012-12-14,28,23,21,-100,-100,-100,0,0,100,0.00,40.00,0,-999,0,0.00
2012-12-15,28,23,21,-100,-100,-100,0,0,100,0.00,40.00,0,-999,0,0.01
2012-12-16,25,22,21,-100,-100,-100,0,0,100,0.00,40.00,0,-999,0,0.03
2012-12-17,29,25,19,-100,-100,-100,0,0,100,0.00,40.00,0,-999,0,0.02
2012-12-18,19,18,17,-100,-100,-100,0,0,100,0.00,40.00,0,-999,0,0.02
2012-12-19,20,18,16,-100,-100,-100,0,0,100,0.00,40.00,0,-999,0,0.01
2012-12-20,27,24,20,-100,-100,-100,0,0,100,0.00,40.00,0,-999,0,0.01
2012-12-21,30,28,25,-100,-100,-100,0,0,100,0.00,40.00,0,-999,0,0.01
2012-12-22,31,29,27,-100,-100,-100,0,0,100,0.00,40.00,0,-999,0,0.01
2012-12-23,29,26,25,-100,-100,-100,0,0,100,0.00,40.00,0,-999,0,0.01
2012-12-24,24,23,22,-100,-100,-100,0,0,100,0.00,40.00,0,-999,0,0.05
2012-12-25,24,22,20,-100,-100,-100,0,0,100,0.00,40.00,0,-999,0,0.01
2012-12-26,28,24,22,-100,-100,-100,0,0,100,0.00,40.00,0,-999,0,0.01
2012-12-27,23,22,22,-100,-100,-100,0,0,100,0.00,40.00,0,-999,0,0.01
2012-12-28,26,22,19,-100,-100,-100,0,0,100,0.00,40.00,0,-999,0,0.01
2012-12-29,27,20,16,-100,-100,-100,0,0,100,0.00,40.00,0,-999,0,0.00
2012-12-30,20,18,15,-100,-100,-100,0,0,100,0.00,40.00,0,-999,0,0.00
2012-12-31,20,16,14,-100,-100,-100,0,0,100,0.00,40.00,0,-999,0,0.00
2013-1-1,17,14,13,-100,-100,-100,0,0,100,0.00,40.00,0,-999,0,0.00